Time;durP1;ratioP1;P1;durP2;ratioP2;P2;SDS_P1;SDS_P2;PMS_P1;PMS_P2;Temp;Humidity;BMP_temperature;BMP_pressure;BME280_temperature;BME280_humidity;BME280_pressure;Samples;Min_cycle;Max_cycle;Signal;HPM_P1;HPM_P2
2020/12/28 00:00:25;;;;;;;6.32;4.03;;;;;;;;;;4395512;32;20084;-67
2020/12/28 00:02:50;;;;;;;7.80;4.25;;;;;;;;;;4383087;32;20088;-67
2020/12/28 00:05:16;;;;;;;6.70;4.57;;;;;;;;;;4407917;32;20089;-67
2020/12/28 00:07:42;;;;;;;6.68;4.10;;;;;;;;;;4382668;32;20104;-66
2020/12/28 00:10:11;;;;;;;5.45;3.80;;;;;;;;;;4395299;32;20138;-66
2020/12/28 00:12:47;;;;;;;5.72;4.15;;;;;;;;;;4395112;32;20074;-66
2020/12/28 00:15:21;;;;;;;5.80;4.12;;;;;;;;;;4385587;32;20165;-66
2020/12/28 00:17:51;;;;;;;6.05;4.25;;;;;;;;;;4382723;32;20069;-67
2020/12/28 00:20:18;;;;;;;7.37;4.57;;;;;;;;;;4382561;32;20078;-67
2020/12/28 00:22:44;;;;;;;6.28;4.30;;;;;;;;;;4382789;32;20146;-66
2020/12/28 00:25:49;;;;;;;6.22;4.28;;;;;;;;;;4407970;32;20108;-67
2020/12/28 00:28:55;;;;;;;5.75;4.37;;;;;;;;;;4409703;32;20169;-66
2020/12/28 00:32:01;;;;;;;5.37;4.10;;;;;;;;;;4408543;32;20112;-66
2020/12/28 00:35:07;;;;;;;6.28;4.50;;;;;;;;;;4393804;32;20077;-67
2020/12/28 00:37:33;;;;;;;6.00;4.70;;;;;;;;;;4394250;32;20105;-67
2020/12/28 00:39:58;;;;;;;7.45;4.47;;;;;;;;;;4392428;32;20500;-67
2020/12/28 00:42:24;;;;;;;6.30;4.93;;;;;;;;;;4368224;32;20074;-67
2020/12/28 00:44:50;;;;;;;6.28;4.53;;;;;;;;;;4393931;32;20073;-68
2020/12/28 00:47:17;;;;;;;7.60;5.37;;;;;;;;;;4384722;32;20085;-67
2020/12/28 00:49:43;;;;;;;7.78;5.00;;;;;;;;;;4393360;32;20068;-67
2020/12/28 00:52:08;;;;;;;7.20;4.60;;;;;;;;;;4392696;32;20101;-67
2020/12/28 00:54:34;;;;;;;5.93;4.57;;;;;;;;;;4392322;32;20070;-66
2020/12/28 00:57:01;;;;;;;6.93;4.70;;;;;;;;;;4393785;32;20520;-67
2020/12/28 00:59:26;;;;;;;6.87;4.87;;;;;;;;;;4392135;32;20080;-66
2020/12/28 01:01:55;;;;;;;7.22;4.82;;;;;;;;;;4393167;32;20508;-67
2020/12/28 01:04:21;;;;;;;7.75;5.03;;;;;;;;;;4379163;32;20055;-67
2020/12/28 01:06:47;;;;;;;7.20;4.90;;;;;;;;;;4379848;32;20061;-67
2020/12/28 01:09:13;;;;;;;6.37;4.57;;;;;;;;;;4392165;32;20480;-66
2020/12/28 01:11:39;;;;;;;7.45;5.20;;;;;;;;;;4366980;32;20500;-67
2020/12/28 01:14:05;;;;;;;6.55;5.03;;;;;;;;;;4392046;32;20097;-67
2020/12/28 01:16:30;;;;;;;6.62;4.65;;;;;;;;;;4379422;32;20496;-67
2020/12/28 01:18:56;;;;;;;6.85;4.75;;;;;;;;;;4391577;32;20085;-68
2020/12/28 01:21:22;;;;;;;7.20;5.07;;;;;;;;;;4391959;32;20530;-67
2020/12/28 01:23:49;;;;;;;6.78;5.32;;;;;;;;;;4366402;32;20066;-67
2020/12/28 01:26:15;;;;;;;7.35;5.10;;;;;;;;;;4389467;32;20142;-67
2020/12/28 01:28:41;;;;;;;7.55;5.28;;;;;;;;;;4381738;32;20058;-67
2020/12/28 01:31:07;;;;;;;6.75;4.78;;;;;;;;;;4393828;32;20113;-67
2020/12/28 01:34:13;;;;;;;7.78;5.35;;;;;;;;;;4381862;32;20169;-66
2020/12/28 01:37:19;;;;;;;7.65;5.72;;;;;;;;;;4393622;32;20150;-67
2020/12/28 01:40:25;;;;;;;7.68;5.70;;;;;;;;;;4393153;32;20073;-67
2020/12/28 01:43:31;;;;;;;9.52;6.75;;;;;;;;;;4393839;32;20065;-68
2020/12/28 01:46:00;;;;;;;7.93;5.82;;;;;;;;;;4393103;32;20085;-68
2020/12/28 01:48:32;;;;;;;7.97;6.20;;;;;;;;;;4379675;32;20101;-67
2020/12/28 01:50:58;;;;;;;7.95;5.55;;;;;;;;;;4366547;32;20085;-67
2020/12/28 01:53:24;;;;;;;7.40;5.55;;;;;;;;;;4391426;32;20448;-67
2020/12/28 01:55:52;;;;;;;7.35;5.20;;;;;;;;;;4354104;32;20162;-67
2020/12/28 01:58:18;;;;;;;7.03;5.18;;;;;;;;;;4353750;32;20074;-68
2020/12/28 02:00:43;;;;;;;6.65;4.82;;;;;;;;;;4378767;32;20167;-68
2020/12/28 02:03:09;;;;;;;6.37;4.80;;;;;;;;;;4391322;32;20166;-68
2020/12/28 02:05:36;;;;;;;6.75;4.65;;;;;;;;;;4366339;32;20173;-66
2020/12/28 02:08:02;;;;;;;5.95;4.28;;;;;;;;;;4378357;32;20594;-68
2020/12/28 02:10:28;;;;;;;6.75;4.87;;;;;;;;;;4392695;32;20146;-67
2020/12/28 02:12:53;;;;;;;6.60;4.90;;;;;;;;;;4390474;32;20155;-68
2020/12/28 02:15:19;;;;;;;7.72;4.80;;;;;;;;;;4390799;32;20556;-67
2020/12/28 02:18:25;;;;;;;7.22;5.15;;;;;;;;;;4354097;32;20084;-67
2020/12/28 02:21:31;;;;;;;8.35;5.90;;;;;;;;;;4391312;32;20088;-67
2020/12/28 02:24:37;;;;;;;7.65;5.22;;;;;;;;;;4393215;32;20070;-67
2020/12/28 02:27:03;;;;;;;8.25;5.37;;;;;;;;;;4392844;32;20070;-67
2020/12/28 02:29:28;;;;;;;7.15;4.72;;;;;;;;;;4391054;32;20074;-66
2020/12/28 02:31:54;;;;;;;6.47;5.03;;;;;;;;;;4391294;32;22437;-67
2020/12/28 02:34:20;;;;;;;8.18;5.62;;;;;;;;;;4367881;32;20092;-67
2020/12/28 02:36:46;;;;;;;7.62;5.85;;;;;;;;;;4381289;32;20077;-66
2020/12/28 02:39:11;;;;;;;8.05;5.55;;;;;;;;;;4393009;32;20088;-67
2020/12/28 02:41:37;;;;;;;7.30;5.55;;;;;;;;;;4393276;32;20073;-67
2020/12/28 02:44:03;;;;;;;8.23;5.80;;;;;;;;;;4405635;32;20100;-67
2020/12/28 02:46:29;;;;;;;7.80;5.40;;;;;;;;;;4406787;32;20100;-66
2020/12/28 02:48:54;;;;;;;6.75;5.22;;;;;;;;;;4407080;32;20069;-67
2020/12/28 02:51:20;;;;;;;7.55;5.62;;;;;;;;;;4393288;32;20065;-67
2020/12/28 02:53:46;;;;;;;7.82;5.60;;;;;;;;;;4405564;32;20070;-67
2020/12/28 02:56:11;;;;;;;7.57;5.22;;;;;;;;;;4405514;32;20062;-67
2020/12/28 02:58:37;;;;;;;7.65;5.53;;;;;;;;;;4406653;32;20162;-66
2020/12/28 03:01:03;;;;;;;8.40;6.20;;;;;;;;;;4406563;32;20084;-67
2020/12/28 03:03:28;;;;;;;8.45;5.62;;;;;;;;;;4393301;32;20065;-67
2020/12/28 03:05:54;;;;;;;7.85;5.15;;;;;;;;;;4392798;32;20081;-67
2020/12/28 03:08:20;;;;;;;8.00;5.35;;;;;;;;;;4405509;32;20100;-67
2020/12/28 03:10:46;;;;;;;10.15;6.20;;;;;;;;;;4406816;32;20170;-66
2020/12/28 03:13:51;;;;;;;7.90;5.60;;;;;;;;;;4392525;32;20085;-67
2020/12/28 03:16:57;;;;;;;7.53;5.55;;;;;;;;;;4406010;32;20066;-66
2020/12/28 03:20:03;;;;;;;7.32;5.25;;;;;;;;;;4407290;32;20447;-66
2020/12/28 03:23:09;;;;;;;7.78;5.20;;;;;;;;;;4405493;32;20070;-67
2020/12/28 03:25:34;;;;;;;8.50;5.75;;;;;;;;;;4406531;32;20484;-67
2020/12/28 03:28:00;;;;;;;7.95;5.32;;;;;;;;;;4406390;32;20072;-67
2020/12/28 03:30:26;;;;;;;8.43;5.50;;;;;;;;;;4405102;32;20078;-66
2020/12/28 03:32:51;;;;;;;8.32;5.50;;;;;;;;;;4406321;32;20069;-67
2020/12/28 03:35:17;;;;;;;8.35;5.85;;;;;;;;;;4405335;32;20077;-67
2020/12/28 03:37:43;;;;;;;8.25;5.70;;;;;;;;;;4404900;32;20073;-65
2020/12/28 03:40:08;;;;;;;9.55;6.70;;;;;;;;;;4379624;32;20153;-66
2020/12/28 03:42:34;;;;;;;7.87;5.80;;;;;;;;;;4392559;32;20065;-68
2020/12/28 03:45:00;;;;;;;8.75;6.00;;;;;;;;;;4406478;32;20061;-67
2020/12/28 03:47:26;;;;;;;9.45;5.82;;;;;;;;;;4405072;32;20157;-65
2020/12/28 03:49:52;;;;;;;9.05;6.00;;;;;;;;;;4405069;32;20504;-67
2020/12/28 03:52:17;;;;;;;8.85;5.90;;;;;;;;;;4404837;32;20100;-65
2020/12/28 03:54:45;;;;;;;10.13;6.25;;;;;;;;;;4406517;32;20480;-67
2020/12/28 03:57:11;;;;;;;7.95;5.60;;;;;;;;;;4379679;32;20507;-67
2020/12/28 03:59:37;;;;;;;8.90;6.15;;;;;;;;;;4404896;32;20089;-66
2020/12/28 04:02:02;;;;;;;7.20;5.72;;;;;;;;;;4404670;32;20081;-67
2020/12/28 04:04:28;;;;;;;9.18;6.25;;;;;;;;;;4367278;32;20212;-65
2020/12/28 04:06:54;;;;;;;10.00;6.07;;;;;;;;;;4404701;32;20166;-67
2020/12/28 04:09:20;;;;;;;8.63;5.65;;;;;;;;;;4392122;32;20093;-67
2020/12/28 04:11:46;;;;;;;7.55;5.35;;;;;;;;;;4392512;32;20088;-68
2020/12/28 04:14:11;;;;;;;6.55;4.35;;;;;;;;;;4404633;32;20173;-67
2020/12/28 04:16:37;;;;;;;7.30;4.75;;;;;;;;;;4405340;32;20138;-67
2020/12/28 04:19:03;;;;;;;7.07;4.78;;;;;;;;;;4392214;32;20081;-67
2020/12/28 04:22:08;;;;;;;6.93;4.70;;;;;;;;;;4406387;32;20077;-67
2020/12/28 04:25:15;;;;;;;7.25;4.78;;;;;;;;;;4405582;32;20069;-67
2020/12/28 04:28:21;;;;;;;8.93;5.35;;;;;;;;;;4391075;32;20186;-67
2020/12/28 04:31:29;;;;;;;6.45;4.75;;;;;;;;;;4391278;32;20081;-67
2020/12/28 04:33:54;;;;;;;8.77;4.75;;;;;;;;;;4405128;32;20072;-66
2020/12/28 04:36:20;;;;;;;7.37;4.72;;;;;;;;;;4381243;32;20494;-67
2020/12/28 04:38:46;;;;;;;6.53;4.40;;;;;;;;;;4407215;32;20158;-66
2020/12/28 04:41:11;;;;;;;6.10;4.37;;;;;;;;;;4408570;32;20150;-67
2020/12/28 04:43:37;;;;;;;8.48;5.25;;;;;;;;;;4395520;32;20082;-67
2020/12/28 04:46:03;;;;;;;10.25;5.55;;;;;;;;;;4407524;32;20088;-67
2020/12/28 04:48:33;;;;;;;8.80;5.25;;;;;;;;;;4394954;32;20070;-67
2020/12/28 04:50:59;;;;;;;8.15;4.72;;;;;;;;;;4369788;32;20156;-67
2020/12/28 04:53:26;;;;;;;6.97;4.95;;;;;;;;;;4394489;32;20093;-68
2020/12/28 04:55:52;;;;;;;8.77;5.25;;;;;;;;;;4394671;32;20649;-66
2020/12/28 04:58:18;;;;;;;9.38;5.80;;;;;;;;;;4409030;32;20150;-66
2020/12/28 05:00:44;;;;;;;8.80;5.47;;;;;;;;;;4394648;32;20081;-67
2020/12/28 05:03:10;;;;;;;9.35;6.37;;;;;;;;;;4394939;32;20065;-69
2020/12/28 05:05:44;;;;;;;9.38;5.82;;;;;;;;;;4408635;32;20149;-68
2020/12/28 05:08:09;;;;;;;8.55;5.30;;;;;;;;;;4394086;32;20162;-67
2020/12/28 05:10:36;;;;;;;10.18;6.15;;;;;;;;;;4382250;32;20077;-65
2020/12/28 05:13:11;;;;;;;11.23;7.07;;;;;;;;;;4394936;32;20062;-68
2020/12/28 05:15:50;;;;;;;11.43;7.57;;;;;;;;;;4394657;32;20234;-67
2020/12/28 05:18:17;;;;;;;13.35;8.30;;;;;;;;;;4369273;32;20073;-67
2020/12/28 05:20:45;;;;;;;13.13;8.07;;;;;;;;;;4381451;32;20077;-67
2020/12/28 05:23:11;;;;;;;14.75;8.52;;;;;;;;;;4382838;32;20074;-67
2020/12/28 05:25:38;;;;;;;11.55;8.40;;;;;;;;;;4394452;32;20077;-67
2020/12/28 05:28:04;;;;;;;13.45;8.32;;;;;;;;;;4394268;32;20089;-68
2020/12/28 05:30:33;;;;;;;14.07;9.02;;;;;;;;;;4406901;32;20251;-65
2020/12/28 05:33:05;;;;;;;14.90;9.68;;;;;;;;;;4373132;32;20132;-68
2020/12/28 05:35:33;;;;;;;16.33;9.48;;;;;;;;;;4391827;32;20068;-67
2020/12/28 05:38:01;;;;;;;16.52;10.18;;;;;;;;;;4391592;32;20080;-66
2020/12/28 05:40:27;;;;;;;15.32;9.88;;;;;;;;;;4376617;32;20532;-67
2020/12/28 05:42:53;;;;;;;12.45;8.55;;;;;;;;;;4364338;32;20515;-67
2020/12/28 05:45:20;;;;;;;11.98;8.45;;;;;;;;;;4339408;32;20070;-68
2020/12/28 05:47:52;;;;;;;13.95;9.07;;;;;;;;;;4351194;32;20062;-68
2020/12/28 05:50:20;;;;;;;12.43;8.02;;;;;;;;;;4376399;32;20163;-68
2020/12/28 05:52:56;;;;;;;13.05;8.68;;;;;;;;;;4339431;32;20074;-66
2020/12/28 05:55:23;;;;;;;13.57;7.85;;;;;;;;;;4363967;32;20445;-67
2020/12/28 05:57:49;;;;;;;13.27;8.40;;;;;;;;;;4376240;32;20515;-67
2020/12/28 06:00:15;;;;;;;15.88;9.15;;;;;;;;;;4376068;32;20147;-69
2020/12/28 06:02:41;;;;;;;14.15;9.10;;;;;;;;;;4351571;32;20085;-67
2020/12/28 06:05:08;;;;;;;14.15;7.95;;;;;;;;;;4363961;32;20121;-68
2020/12/28 06:07:34;;;;;;;14.18;9.18;;;;;;;;;;4363627;32;20066;-68
2020/12/28 06:10:00;;;;;;;11.12;8.02;;;;;;;;;;4363612;32;20069;-69
2020/12/28 06:12:25;;;;;;;15.40;8.57;;;;;;;;;;4363578;32;20093;-70
2020/12/28 06:14:51;;;;;;;11.25;7.53;;;;;;;;;;4375745;32;20517;-69
2020/12/28 06:17:17;;;;;;;11.50;7.87;;;;;;;;;;4376744;32;20500;-69
2020/12/28 06:19:43;;;;;;;12.20;7.55;;;;;;;;;;4376681;32;20093;-69
2020/12/28 06:22:22;;;;;;;12.30;8.43;;;;;;;;;;4376576;32;20090;-69
2020/12/28 06:25:05;;;;;;;12.27;7.70;;;;;;;;;;4352563;32;20516;-64
2020/12/28 06:27:31;;;;;;;12.63;8.30;;;;;;;;;;4379118;32;20162;-66
2020/12/28 06:30:19;;;;;;;12.27;8.05;;;;;;;;;;4392921;32;20219;-65
2020/12/28 06:32:49;;;;;;;12.70;8.35;;;;;;;;;;4373078;32;20062;-65
2020/12/28 06:35:16;;;;;;;13.10;8.60;;;;;;;;;;4364189;32;20094;-66
2020/12/28 06:37:48;;;;;;;12.48;8.27;;;;;;;;;;4363089;32;20531;-65
2020/12/28 06:40:14;;;;;;;12.65;8.57;;;;;;;;;;4376218;32;20063;-67
2020/12/28 06:42:40;;;;;;;11.20;7.97;;;;;;;;;;4375589;32;20077;-66
2020/12/28 06:45:15;;;;;;;14.40;9.73;;;;;;;;;;4363398;32;20174;-67
2020/12/28 06:47:42;;;;;;;13.95;9.23;;;;;;;;;;4375648;32;20073;-68
2020/12/28 06:50:08;;;;;;;12.45;8.38;;;;;;;;;;4351417;32;20089;-68
2020/12/28 06:52:34;;;;;;;11.40;7.97;;;;;;;;;;4375684;32;20468;-65
2020/12/28 06:55:09;;;;;;;11.75;7.62;;;;;;;;;;4376938;32;20086;-65
2020/12/28 06:57:35;;;;;;;12.60;7.60;;;;;;;;;;4375710;32;20147;-64
2020/12/28 07:00:00;;;;;;;11.15;7.45;;;;;;;;;;4375334;32;20101;-67
2020/12/28 07:02:26;;;;;;;12.02;7.80;;;;;;;;;;4363405;32;20509;-68
2020/12/28 07:04:52;;;;;;;10.93;7.28;;;;;;;;;;4375041;32;20154;-65
2020/12/28 07:07:17;;;;;;;12.73;7.93;;;;;;;;;;4375162;32;20528;-66
2020/12/28 07:09:49;;;;;;;13.18;8.48;;;;;;;;;;4375219;32;20082;-65
2020/12/28 07:12:14;;;;;;;11.23;7.82;;;;;;;;;;4367157;32;21809;-70
2020/12/28 07:14:40;;;;;;;11.70;6.75;;;;;;;;;;4361989;32;20074;-68
2020/12/28 07:17:06;;;;;;;10.48;7.45;;;;;;;;;;4374365;32;20066;-69
2020/12/28 07:19:34;;;;;;;10.13;6.62;;;;;;;;;;4383746;32;20081;-72
2020/12/28 07:22:00;;;;;;;9.48;6.95;;;;;;;;;;4375256;32;20051;-66
2020/12/28 07:24:26;;;;;;;10.95;6.95;;;;;;;;;;4380753;32;20085;-65
2020/12/28 07:26:53;;;;;;;10.68;7.20;;;;;;;;;;4388754;32;20528;-68
2020/12/28 07:29:20;;;;;;;9.27;7.03;;;;;;;;;;4372435;32;20136;-67
2020/12/28 07:31:46;;;;;;;10.05;7.12;;;;;;;;;;4383219;32;20094;-69
2020/12/28 07:34:18;;;;;;;10.75;6.85;;;;;;;;;;4371346;32;20074;-67
2020/12/28 07:36:48;;;;;;;11.15;7.18;;;;;;;;;;4393314;32;20050;-67
2020/12/28 07:39:14;;;;;;;11.23;7.50;;;;;;;;;;4394597;32;20061;-68
2020/12/28 07:41:40;;;;;;;9.75;6.90;;;;;;;;;;4374648;32;20114;-68
2020/12/28 07:44:06;;;;;;;10.77;7.00;;;;;;;;;;4383198;32;20077;-68
2020/12/28 07:46:32;;;;;;;11.05;6.85;;;;;;;;;;4381789;32;20088;-67
2020/12/28 07:49:24;;;;;;;8.73;6.07;;;;;;;;;;4392978;32;20074;-70
2020/12/28 07:52:27;;;;;;;9.50;6.45;;;;;;;;;;4371064;32;20139;-67
2020/12/28 07:55:00;;;;;;;9.32;7.00;;;;;;;;;;4378831;32;20066;-71
2020/12/28 07:57:44;;;;;;;13.40;8.27;;;;;;;;;;4377986;32;20492;-71
2020/12/28 08:00:15;;;;;;;12.68;8.07;;;;;;;;;;4396212;32;20077;-68
2020/12/28 08:03:00;;;;;;;11.95;7.37;;;;;;;;;;4376843;32;20031;-68
2020/12/28 08:05:26;;;;;;;11.12;7.68;;;;;;;;;;4382015;32;20108;-70
2020/12/28 08:07:51;;;;;;;11.65;7.32;;;;;;;;;;4381857;32;20120;-68
2020/12/28 08:10:17;;;;;;;11.63;7.78;;;;;;;;;;4391938;32;20149;-68
2020/12/28 08:12:58;;;;;;;13.60;8.27;;;;;;;;;;4391701;32;20168;-68
2020/12/28 08:15:35;;;;;;;13.60;8.75;;;;;;;;;;4368953;32;20080;-69
2020/12/28 08:18:10;;;;;;;11.20;7.87;;;;;;;;;;4360474;32;20603;-68
2020/12/28 08:20:37;;;;;;;12.75;8.63;;;;;;;;;;4392899;32;20069;-71
2020/12/28 08:23:03;;;;;;;12.45;7.55;;;;;;;;;;4370492;32;20093;-68
2020/12/28 08:25:30;;;;;;;10.55;7.15;;;;;;;;;;4384631;32;20445;-68
2020/12/28 08:27:56;;;;;;;12.48;8.38;;;;;;;;;;4374129;32;20089;-68
2020/12/28 08:30:24;;;;;;;13.62;8.38;;;;;;;;;;4364346;32;20073;-69
2020/12/28 08:32:50;;;;;;;9.82;6.82;;;;;;;;;;4364827;32;20089;-69
2020/12/28 08:35:16;;;;;;;11.12;7.53;;;;;;;;;;4377995;32;20501;-69
2020/12/28 08:37:49;;;;;;;11.20;7.85;;;;;;;;;;4405919;32;20061;-67
2020/12/28 08:40:20;;;;;;;12.20;7.25;;;;;;;;;;4373941;32;20148;-65
2020/12/28 08:42:56;;;;;;;11.05;7.30;;;;;;;;;;4382224;32;20558;-69
2020/12/28 08:45:23;;;;;;;;;;;;;;;;;;4381939;32;20086;-68
2020/12/28 08:47:53;;;;;;;14.90;9.95;;;;;;;;;;4379800;32;20470;-69
2020/12/28 08:50:20;;;;;;;14.90;9.05;;;;;;;;;;4370533;32;20081;-67
2020/12/28 08:53:04;;;;;;;13.40;8.48;;;;;;;;;;4378154;32;20169;-67
2020/12/28 08:55:30;;;;;;;14.25;8.23;;;;;;;;;;4353793;32;20058;-71
2020/12/28 08:57:58;;;;;;;13.90;8.32;;;;;;;;;;4380354;32;20455;-71
2020/12/28 09:00:24;;;;;;;13.93;8.88;;;;;;;;;;4366317;32;20149;-71
2020/12/28 09:02:54;;;;;;;11.73;8.05;;;;;;;;;;4368015;32;20172;-71
2020/12/28 09:05:20;;;;;;;14.77;8.15;;;;;;;;;;4366830;32;20145;-71
2020/12/28 09:07:46;;;;;;;12.55;8.10;;;;;;;;;;4379315;32;20082;-67
2020/12/28 09:10:13;;;;;;;14.30;9.60;;;;;;;;;;4371002;32;20076;-70
2020/12/28 09:12:40;;;;;;;13.60;9.18;;;;;;;;;;4377588;32;20058;-68
2020/12/28 09:15:06;;;;;;;12.48;8.60;;;;;;;;;;4365150;32;20086;-65
2020/12/28 09:17:31;;;;;;;12.37;8.07;;;;;;;;;;4382391;32;20525;-66
2020/12/28 09:19:57;;;;;;;10.20;7.05;;;;;;;;;;4374116;32;20086;-67
2020/12/28 09:22:23;;;;;;;10.90;7.40;;;;;;;;;;4360312;32;20121;-66
2020/12/28 09:24:49;;;;;;;10.90;7.47;;;;;;;;;;4374470;32;20515;-64
2020/12/28 09:27:15;;;;;;;11.68;7.62;;;;;;;;;;4350036;32;20508;-65
2020/12/28 09:29:40;;;;;;;11.12;7.40;;;;;;;;;;4374772;32;20089;-66
2020/12/28 09:32:06;;;;;;;10.18;7.18;;;;;;;;;;4374911;32;20090;-68
2020/12/28 09:34:32;;;;;;;12.70;7.35;;;;;;;;;;4362920;32;20185;-64
2020/12/28 09:36:59;;;;;;;10.52;7.43;;;;;;;;;;4376928;32;20163;-64
2020/12/28 09:39:25;;;;;;;10.60;7.28;;;;;;;;;;4376583;32;20065;-65
2020/12/28 09:41:50;;;;;;;9.63;6.95;;;;;;;;;;4364383;32;20063;-65
2020/12/28 09:44:16;;;;;;;10.23;7.22;;;;;;;;;;4377718;32;20094;-65
2020/12/28 09:46:42;;;;;;;12.60;7.72;;;;;;;;;;4364590;32;20412;-65
2020/12/28 09:49:08;;;;;;;10.50;7.03;;;;;;;;;;4376959;32;20075;-65
2020/12/28 09:51:33;;;;;;;12.35;7.03;;;;;;;;;;4377082;32;20066;-64
2020/12/28 09:53:59;;;;;;;9.65;6.10;;;;;;;;;;4376736;32;20450;-64
2020/12/28 09:56:25;;;;;;;10.02;6.20;;;;;;;;;;4376893;32;20086;-64
2020/12/28 09:58:51;;;;;;;9.68;6.35;;;;;;;;;;4378119;32;20585;-65
2020/12/28 10:01:16;;;;;;;8.43;5.90;;;;;;;;;;4376819;32;20163;-65
2020/12/28 10:03:42;;;;;;;10.13;6.20;;;;;;;;;;4376394;32;20561;-64
2020/12/28 10:08:52;;;;;;;10.57;5.80;;;;;;;;;;4376648;32;20073;-65
2020/12/28 10:11:18;;;;;;;9.75;6.28;;;;;;;;;;4378308;32;20074;-64
2020/12/28 10:13:44;;;;;;;9.38;5.95;;;;;;;;;;4351866;32;20432;-64
2020/12/28 10:16:09;;;;;;;9.15;5.87;;;;;;;;;;4377766;32;20104;-67
2020/12/28 10:18:39;;;;;;;10.43;6.97;;;;;;;;;;4367127;32;20437;-66
2020/12/28 10:21:09;;;;;;;10.18;6.12;;;;;;;;;;4354988;32;20077;-68
2020/12/28 10:23:35;;;;;;;9.95;6.78;;;;;;;;;;4353984;32;20155;-67
2020/12/28 10:26:01;;;;;;;10.45;7.18;;;;;;;;;;4366752;32;20084;-67
2020/12/28 10:28:26;;;;;;;7.20;5.53;;;;;;;;;;4378892;32;20509;-67
2020/12/28 10:30:52;;;;;;;11.12;7.72;;;;;;;;;;4366163;32;20106;-65
2020/12/28 10:33:18;;;;;;;12.25;9.40;;;;;;;;;;4367922;32;20117;-66
2020/12/28 10:35:43;;;;;;;12.37;8.52;;;;;;;;;;4375908;32;20444;-67
2020/12/28 10:38:09;;;;;;;9.88;6.00;;;;;;;;;;4378575;32;20074;-67
2020/12/28 10:40:35;;;;;;;8.50;5.53;;;;;;;;;;4378570;32;20171;-67
2020/12/28 10:43:01;;;;;;;9.93;6.00;;;;;;;;;;4378265;32;20072;-67
2020/12/28 10:45:26;;;;;;;9.75;6.25;;;;;;;;;;4377676;32;20067;-66
2020/12/28 10:47:52;;;;;;;11.45;6.53;;;;;;;;;;4388697;32;20544;-67
2020/12/28 10:50:18;;;;;;;8.05;5.85;;;;;;;;;;4376053;32;20090;-67
2020/12/28 10:52:44;;;;;;;8.98;5.90;;;;;;;;;;4363326;32;20073;-67
2020/12/28 10:55:10;;;;;;;9.75;6.35;;;;;;;;;;4375952;32;20094;-66
2020/12/28 10:57:36;;;;;;;10.63;6.50;;;;;;;;;;4388294;32;20571;-68
2020/12/28 11:00:02;;;;;;;10.70;6.57;;;;;;;;;;4374819;32;20566;-67
2020/12/28 11:03:09;;;;;;;9.02;6.03;;;;;;;;;;4377144;32;20118;-65
2020/12/28 11:06:15;;;;;;;10.30;6.68;;;;;;;;;;4392951;32;20074;-67
2020/12/28 11:09:21;;;;;;;9.70;6.37;;;;;;;;;;4391231;32;20189;-65
2020/12/28 11:12:08;;;;;;;9.35;6.47;;;;;;;;;;4392704;32;20158;-68
2020/12/28 11:14:34;;;;;;;9.07;6.22;;;;;;;;;;4381839;32;20058;-66
2020/12/28 11:17:03;;;;;;;11.07;6.47;;;;;;;;;;4374526;32;20080;-66
2020/12/28 11:19:30;;;;;;;10.02;6.22;;;;;;;;;;4377665;32;20163;-66
2020/12/28 11:21:55;;;;;;;8.70;6.03;;;;;;;;;;4376289;32;20062;-66
2020/12/28 11:24:21;;;;;;;10.00;6.37;;;;;;;;;;4374972;32;20151;-65
2020/12/28 11:26:48;;;;;;;8.75;5.87;;;;;;;;;;4382600;32;20069;-66
2020/12/28 11:29:14;;;;;;;10.32;6.12;;;;;;;;;;4369675;32;20070;-65
2020/12/28 11:31:39;;;;;;;8.45;5.53;;;;;;;;;;4383180;32;20082;-68
2020/12/28 11:34:05;;;;;;;9.63;7.10;;;;;;;;;;4378972;32;20070;-65
2020/12/28 11:36:32;;;;;;;9.70;6.68;;;;;;;;;;4380210;32;20078;-65
2020/12/28 11:38:58;;;;;;;8.75;5.90;;;;;;;;;;4368496;32;20077;-65
2020/12/28 11:41:24;;;;;;;10.25;6.45;;;;;;;;;;4361135;32;20112;-65
2020/12/28 11:43:49;;;;;;;10.95;6.75;;;;;;;;;;4368965;32;20086;-67
2020/12/28 11:46:15;;;;;;;10.25;6.87;;;;;;;;;;4370166;32;20139;-66
2020/12/28 11:48:41;;;;;;;9.55;6.72;;;;;;;;;;4390339;32;20070;-71
2020/12/28 11:51:07;;;;;;;10.10;6.90;;;;;;;;;;4390946;32;20077;-68
2020/12/28 11:53:36;;;;;;;10.10;7.05;;;;;;;;;;4390544;32;20538;-65
2020/12/28 11:56:12;;;;;;;12.75;7.20;;;;;;;;;;4390404;32;20077;-64
2020/12/28 11:58:39;;;;;;;12.13;8.45;;;;;;;;;;4378520;32;20066;-64
2020/12/28 12:01:09;;;;;;;19.17;8.70;;;;;;;;;;4377865;32;20086;-65
2020/12/28 12:03:35;;;;;;;12.52;8.70;;;;;;;;;;4375063;32;20085;-65
2020/12/28 12:06:01;;;;;;;14.48;8.45;;;;;;;;;;4374907;32;20526;-70
2020/12/28 12:08:27;;;;;;;14.98;8.95;;;;;;;;;;4391531;32;20153;-67
2020/12/28 12:10:52;;;;;;;11.60;7.75;;;;;;;;;;4366458;32;20066;-68
2020/12/28 12:13:18;;;;;;;12.95;7.68;;;;;;;;;;4376736;32;20086;-68
2020/12/28 12:15:48;;;;;;;12.25;7.82;;;;;;;;;;4369465;32;20070;-67
2020/12/28 12:18:17;;;;;;;10.70;7.53;;;;;;;;;;4355483;32;20138;-68
2020/12/28 12:20:42;;;;;;;12.43;7.15;;;;;;;;;;4380665;32;20086;-66
2020/12/28 12:23:08;;;;;;;13.43;8.20;;;;;;;;;;4368927;32;20098;-69
2020/12/28 12:25:34;;;;;;;12.37;7.90;;;;;;;;;;4376944;32;20536;-67
2020/12/28 12:28:00;;;;;;;11.20;7.30;;;;;;;;;;4376978;32;20085;-70
2020/12/28 12:30:29;;;;;;;12.63;7.65;;;;;;;;;;4382930;32;20078;-67
2020/12/28 12:32:58;;;;;;;12.52;7.78;;;;;;;;;;4382432;32;20456;-69
2020/12/28 12:35:24;;;;;;;11.63;7.65;;;;;;;;;;4362731;32;20452;-68
2020/12/28 12:37:49;;;;;;;13.15;7.85;;;;;;;;;;4376141;32;20090;-69
2020/12/28 12:40:15;;;;;;;14.30;9.30;;;;;;;;;;4387366;32;20075;-68
2020/12/28 12:42:41;;;;;;;10.13;7.00;;;;;;;;;;4374765;32;20098;-69
2020/12/28 12:45:06;;;;;;;12.98;7.45;;;;;;;;;;4376345;32;20082;-68
2020/12/28 12:47:32;;;;;;;12.52;6.97;;;;;;;;;;4376549;32;20148;-68
2020/12/28 12:49:58;;;;;;;11.02;7.22;;;;;;;;;;4362461;32;20090;-69
2020/12/28 12:52:24;;;;;;;12.30;8.30;;;;;;;;;;4387396;32;20082;-68
2020/12/28 12:54:50;;;;;;;10.95;7.53;;;;;;;;;;4374371;32;20082;-67
2020/12/28 12:57:17;;;;;;;10.50;7.47;;;;;;;;;;4376995;32;20066;-69
2020/12/28 13:00:05;;;;;;;11.12;7.25;;;;;;;;;;4378357;32;20161;-65
2020/12/28 13:02:35;;;;;;;9.45;6.70;;;;;;;;;;4365508;32;20580;-69
2020/12/28 13:05:03;;;;;;;11.68;6.57;;;;;;;;;;4381922;32;20433;-68
2020/12/28 13:07:29;;;;;;;9.32;6.55;;;;;;;;;;4368534;32;20104;-67
2020/12/28 13:09:54;;;;;;;12.02;7.65;;;;;;;;;;4372820;32;20077;-67
2020/12/28 13:12:21;;;;;;;12.60;8.45;;;;;;;;;;4371316;32;20521;-65
2020/12/28 13:14:47;;;;;;;11.40;7.47;;;;;;;;;;4370928;32;20073;-66
2020/12/28 13:17:14;;;;;;;13.13;8.18;;;;;;;;;;4367903;32;20090;-67
2020/12/28 13:19:41;;;;;;;10.73;7.18;;;;;;;;;;4378990;32;20071;-68
2020/12/28 13:22:06;;;;;;;15.32;8.70;;;;;;;;;;4377207;32;20079;-69
2020/12/28 13:24:32;;;;;;;12.73;8.20;;;;;;;;;;4366247;32;20102;-69
2020/12/28 13:26:58;;;;;;;11.95;7.00;;;;;;;;;;4375918;32;20066;-70
2020/12/28 13:29:24;;;;;;;13.50;8.13;;;;;;;;;;4376011;32;20186;-68
2020/12/28 13:31:50;;;;;;;11.88;7.35;;;;;;;;;;4389168;32;20073;-68
2020/12/28 13:34:18;;;;;;;12.75;8.30;;;;;;;;;;4385835;32;20094;-71
2020/12/28 13:36:43;;;;;;;14.23;8.38;;;;;;;;;;4388106;32;20077;-68
2020/12/28 13:39:09;;;;;;;13.13;8.30;;;;;;;;;;4368902;32;20093;-69
2020/12/28 13:41:35;;;;;;;14.18;8.93;;;;;;;;;;4377715;32;20074;-68
2020/12/28 13:44:00;;;;;;;12.57;8.95;;;;;;;;;;4378318;32;20067;-69
2020/12/28 13:46:26;;;;;;;13.48;9.43;;;;;;;;;;4368163;32;20081;-70
2020/12/28 13:48:52;;;;;;;16.20;9.32;;;;;;;;;;4353101;32;20070;-67
2020/12/28 13:51:21;;;;;;;15.73;9.50;;;;;;;;;;4383941;32;20113;-68
2020/12/28 13:53:47;;;;;;;12.37;8.75;;;;;;;;;;4363895;32;20536;-70
2020/12/28 13:56:15;;;;;;;13.20;7.75;;;;;;;;;;4368987;32;20089;-68
2020/12/28 13:58:44;;;;;;;15.63;8.35;;;;;;;;;;4366315;32;20066;-67
2020/12/28 14:01:11;;;;;;;13.90;8.75;;;;;;;;;;4373462;32;20081;-70
2020/12/28 14:03:38;;;;;;;15.48;9.05;;;;;;;;;;4373387;32;20062;-69
2020/12/28 14:06:08;;;;;;;16.65;8.80;;;;;;;;;;4382699;32;20162;-68
2020/12/28 14:08:35;;;;;;;12.35;8.48;;;;;;;;;;4378646;32;20113;-67
2020/12/28 14:11:42;;;;;;;15.27;9.32;;;;;;;;;;4384717;32;20062;-67
2020/12/28 14:14:47;;;;;;;17.02;9.63;;;;;;;;;;4382685;32;20102;-68
2020/12/28 14:17:53;;;;;;;13.52;8.85;;;;;;;;;;4388864;32;20140;-68
2020/12/28 14:20:59;;;;;;;14.40;9.15;;;;;;;;;;4390566;32;20223;-68
2020/12/28 14:23:25;;;;;;;16.77;10.02;;;;;;;;;;4389210;32;20493;-67
2020/12/28 14:25:51;;;;;;;15.48;9.90;;;;;;;;;;4384696;32;20150;-69
2020/12/28 14:28:17;;;;;;;13.57;9.52;;;;;;;;;;4390990;32;20118;-67
2020/12/28 14:30:43;;;;;;;16.67;10.00;;;;;;;;;;4376359;32;20456;-67
2020/12/28 14:33:08;;;;;;;13.95;8.93;;;;;;;;;;4387777;32;20142;-68
2020/12/28 14:35:34;;;;;;;13.57;9.07;;;;;;;;;;4388803;32;20074;-67
2020/12/28 14:38:00;;;;;;;15.38;10.05;;;;;;;;;;4372163;32;20082;-66
2020/12/28 14:40:26;;;;;;;19.42;9.65;;;;;;;;;;4385088;32;20081;-70
2020/12/28 14:42:52;;;;;;;16.90;11.43;;;;;;;;;;4399524;32;20074;-68
2020/12/28 14:45:18;;;;;;;17.05;11.55;;;;;;;;;;4379308;32;20090;-67
2020/12/28 14:47:44;;;;;;;14.35;9.85;;;;;;;;;;4378811;32;20162;-66
2020/12/28 14:50:09;;;;;;;16.92;10.98;;;;;;;;;;4360197;32;20522;-68
2020/12/28 14:52:36;;;;;;;14.85;10.05;;;;;;;;;;4363715;32;20515;-69
2020/12/28 14:55:03;;;;;;;15.25;9.95;;;;;;;;;;4388772;32;20063;-67